Time;durP1;ratioP1;P1;durP2;ratioP2;P2;SDS_P1;SDS_P2;PMS_P1;PMS_P2;Temp;Humidity;BMP_temperature;BMP_pressure;BME280_temperature;BME280_humidity;BME280_pressure;Samples;Min_cycle;Max_cycle;Signal;HPM_P1;HPM_P2
2022/06/01 00:01:05;;;;;;;1.10;1.10;;;;;;;;;;1846937;77;26262;-55
2022/06/01 00:03:34;;;;;;;1.10;1.10;;;;;;;;;;1847642;76;26291;-58
2022/06/01 00:06:02;;;;;;;1.20;1.20;;;;;;;;;;1845433;76;39014;-60
2022/06/01 00:08:32;;;;;;;1.10;1.10;;;;;;;;;;1858090;76;26256;-59
2022/06/01 00:11:00;;;;;;;1.05;1.05;;;;;;;;;;1854204;77;26292;-55
2022/06/01 00:13:28;;;;;;;1.17;1.17;;;;;;;;;;1857354;76;26269;-55
2022/06/01 00:15:55;;;;;;;1.20;1.20;;;;;;;;;;1837718;76;26338;-59
2022/06/01 00:18:23;;;;;;;1.05;1.05;;;;;;;;;;1854400;76;26350;-59
2022/06/01 00:20:51;;;;;;;1.07;1.07;;;;;;;;;;1854960;76;26730;-61
2022/06/01 00:23:19;;;;;;;1.87;1.15;;;;;;;;;;1855266;76;26354;-48
2022/06/01 00:25:46;;;;;;;1.10;1.10;;;;;;;;;;1854806;76;26634;-58
2022/06/01 00:28:14;;;;;;;1.07;1.07;;;;;;;;;;1851995;76;26292;-52
2022/06/01 00:30:41;;;;;;;1.10;1.10;;;;;;;;;;1855312;76;26354;-60
2022/06/01 00:33:09;;;;;;;1.47;1.10;;;;;;;;;;1850241;76;26350;-63
2022/06/01 00:35:37;;;;;;;1.10;1.10;;;;;;;;;;1852839;76;26837;-59
2022/06/01 00:38:05;;;;;;;1.10;1.10;;;;;;;;;;1853565;76;26277;-52
2022/06/01 00:40:32;;;;;;;1.95;1.00;;;;;;;;;;1856119;76;26649;-62
2022/06/01 00:43:00;;;;;;;1.07;1.07;;;;;;;;;;1847452;76;26706;-57
2022/06/01 00:45:29;;;;;;;1.00;1.00;;;;;;;;;;1856362;77;27279;-50
2022/06/01 00:47:57;;;;;;;1.25;1.00;;;;;;;;;;1848267;76;26733;-55
2022/06/01 00:50:31;;;;;;;1.00;1.00;;;;;;;;;;1852605;76;26276;-57
2022/06/01 00:53:00;;;;;;;0.90;0.90;;;;;;;;;;1857304;77;26323;-55
2022/06/01 00:55:29;;;;;;;1.07;1.07;;;;;;;;;;1855285;76;26300;-57
2022/06/01 00:58:01;;;;;;;0.95;0.95;;;;;;;;;;1853929;76;26741;-58
2022/06/01 01:00:32;;;;;;;0.93;0.93;;;;;;;;;;1853205;77;26273;-62
2022/06/01 01:03:00;;;;;;;1.10;1.10;;;;;;;;;;1853544;76;26780;-52
2022/06/01 01:05:29;;;;;;;2.02;1.00;;;;;;;;;;1853275;76;26945;-60
2022/06/01 01:07:58;;;;;;;1.00;1.00;;;;;;;;;;1848494;76;26705;-52
2022/06/01 01:10:26;;;;;;;0.90;0.90;;;;;;;;;;1841574;77;26301;-63
2022/06/01 01:12:56;;;;;;;1.17;1.02;;;;;;;;;;1843374;76;26308;-62
2022/06/01 01:15:25;;;;;;;0.90;0.90;;;;;;;;;;1851501;76;26668;-61
2022/06/01 01:17:54;;;;;;;0.90;0.90;;;;;;;;;;1857599;76;26745;-60
2022/06/01 01:20:22;;;;;;;0.95;0.93;;;;;;;;;;1842131;77;26874;-59
2022/06/01 01:22:51;;;;;;;1.00;1.00;;;;;;;;;;1856639;76;26229;-53
2022/06/01 01:25:23;;;;;;;0.90;0.90;;;;;;;;;;1847137;77;26393;-62
2022/06/01 01:27:54;;;;;;;0.82;0.82;;;;;;;;;;1847389;77;26772;-50
2022/06/01 01:30:26;;;;;;;1.00;1.00;;;;;;;;;;1856622;76;27226;-51
2022/06/01 01:32:53;;;;;;;0.90;0.90;;;;;;;;;;1857489;77;26280;-61
2022/06/01 01:35:20;;;;;;;0.90;0.90;;;;;;;;;;1855798;76;26268;-55
2022/06/01 01:37:49;;;;;;;1.00;1.00;;;;;;;;;;1846920;76;26736;-59
2022/06/01 01:40:16;;;;;;;1.05;1.05;;;;;;;;;;1856377;77;26280;-59
2022/06/01 01:42:45;;;;;;;0.90;0.90;;;;;;;;;;1854653;77;26830;-60
2022/06/01 01:45:19;;;;;;;1.00;1.00;;;;;;;;;;1851767;76;26345;-49
2022/06/01 01:47:47;;;;;;;1.00;1.00;;;;;;;;;;1854776;77;26328;-57
2022/06/01 01:50:15;;;;;;;1.00;1.00;;;;;;;;;;1854088;76;26293;-57
2022/06/01 01:52:44;;;;;;;0.90;0.90;;;;;;;;;;1855225;76;26244;-52
2022/06/01 01:55:20;;;;;;;0.90;0.90;;;;;;;;;;1857398;76;26300;-63
2022/06/01 01:57:57;;;;;;;0.80;0.80;;;;;;;;;;1855286;76;26850;-55
2022/06/01 02:00:26;;;;;;;0.90;0.90;;;;;;;;;;1852422;76;26346;-51
2022/06/01 02:03:07;;;;;;;0.95;0.95;;;;;;;;;;1855643;76;26257;-52
2022/06/01 02:06:05;;;;;;;0.90;0.90;;;;;;;;;;1857850;76;26733;-57
2022/06/01 02:08:41;;;;;;;0.98;0.98;;;;;;;;;;1856416;76;26355;-61
2022/06/01 02:14:00;;;;;;;0.95;0.95;;;;;;;;;;1856662;76;26345;-60
2022/06/01 02:16:29;;;;;;;0.90;0.90;;;;;;;;;;1850511;76;26265;-54
2022/06/01 02:18:58;;;;;;;0.90;0.90;;;;;;;;;;1855919;76;26260;-55
2022/06/01 02:21:27;;;;;;;1.67;0.90;;;;;;;;;;1854701;76;26253;-60
2022/06/01 02:23:55;;;;;;;0.90;0.90;;;;;;;;;;1850570;76;26294;-53
2022/06/01 02:26:23;;;;;;;0.80;0.80;;;;;;;;;;1834026;76;26287;-53
2022/06/01 02:28:52;;;;;;;4.58;1.20;;;;;;;;;;1836534;77;26908;-54
2022/06/01 02:31:20;;;;;;;1.00;1.00;;;;;;;;;;1834631;76;26670;-61
2022/06/01 02:33:48;;;;;;;2.10;0.80;;;;;;;;;;1833677;77;26270;-61
2022/06/01 02:36:16;;;;;;;0.90;0.90;;;;;;;;;;1836230;76;26247;-59
2022/06/01 02:38:45;;;;;;;1.37;0.90;;;;;;;;;;1837658;77;26269;-60
2022/06/01 02:43:59;;;;;;;0.90;0.90;;;;;;;;;;1830216;76;26282;-52
2022/06/01 02:46:26;;;;;;;0.80;0.80;;;;;;;;;;1834858;77;26791;-61
2022/06/01 02:48:55;;;;;;;0.85;0.85;;;;;;;;;;1835010;76;26274;-55
2022/06/01 02:51:24;;;;;;;1.65;0.90;;;;;;;;;;1830500;77;26727;-53
2022/06/01 02:53:51;;;;;;;2.72;0.85;;;;;;;;;;1835857;77;26306;-57
2022/06/01 02:56:19;;;;;;;0.95;0.95;;;;;;;;;;1828543;78;26277;-53
2022/06/01 02:58:47;;;;;;;0.90;0.90;;;;;;;;;;1828816;76;26317;-62
2022/06/01 03:01:14;;;;;;;0.98;0.95;;;;;;;;;;1835118;78;26270;-62
2022/06/01 03:03:41;;;;;;;0.90;0.90;;;;;;;;;;1834782;77;26289;-61
2022/06/01 03:06:09;;;;;;;0.90;0.90;;;;;;;;;;1829132;76;26329;-53
2022/06/01 03:08:37;;;;;;;0.72;0.72;;;;;;;;;;1830970;76;26246;-57
2022/06/01 03:11:04;;;;;;;0.80;0.80;;;;;;;;;;1836374;77;26365;-56
2022/06/01 03:13:32;;;;;;;0.80;0.80;;;;;;;;;;1836454;76;26208;-57
2022/06/01 03:15:59;;;;;;;0.80;0.80;;;;;;;;;;1835109;77;26275;-56
2022/06/01 03:18:27;;;;;;;0.85;0.85;;;;;;;;;;1836373;77;26340;-51
2022/06/01 03:20:55;;;;;;;0.90;0.90;;;;;;;;;;1831124;77;26332;-58
2022/06/01 03:23:22;;;;;;;0.90;0.90;;;;;;;;;;1833444;77;26336;-58
2022/06/01 03:25:49;;;;;;;0.90;0.90;;;;;;;;;;1834164;77;26674;-58
2022/06/01 03:28:17;;;;;;;0.90;0.90;;;;;;;;;;1832945;76;26270;-58
2022/06/01 03:30:45;;;;;;;0.78;0.75;;;;;;;;;;1833949;78;26305;-54
2022/06/01 03:33:15;;;;;;;0.90;0.90;;;;;;;;;;1833700;77;26336;-62
2022/06/01 03:35:42;;;;;;;0.93;0.90;;;;;;;;;;1834445;77;26797;-64
2022/06/01 03:38:10;;;;;;;0.80;0.80;;;;;;;;;;1837447;76;26879;-64
2022/06/01 03:40:38;;;;;;;0.90;0.90;;;;;;;;;;1834953;77;26277;-62
2022/06/01 03:43:05;;;;;;;0.90;0.90;;;;;;;;;;1836272;76;26274;-54
2022/06/01 03:48:18;;;;;;;0.93;0.85;;;;;;;;;;1836315;77;26822;-52
2022/06/01 03:50:45;;;;;;;0.90;0.90;;;;;;;;;;1830437;77;26347;-62
2022/06/01 03:53:13;;;;;;;0.72;0.72;;;;;;;;;;1832440;76;26266;-56
2022/06/01 03:55:41;;;;;;;0.80;0.80;;;;;;;;;;1828605;77;26303;-60
2022/06/01 03:58:10;;;;;;;0.70;0.70;;;;;;;;;;1836209;77;26249;-56
2022/06/01 04:00:37;;;;;;;0.95;0.95;;;;;;;;;;1830143;77;26258;-51
2022/06/01 04:03:05;;;;;;;0.90;0.90;;;;;;;;;;1834353;77;26329;-62
2022/06/01 04:05:32;;;;;;;0.80;0.80;;;;;;;;;;1835839;77;26273;-55
2022/06/01 04:08:01;;;;;;;2.30;0.93;;;;;;;;;;1832784;76;26370;-56
2022/06/01 04:10:29;;;;;;;0.80;0.80;;;;;;;;;;1819829;77;26642;-54
2022/06/01 04:12:56;;;;;;;0.90;0.90;;;;;;;;;;1833285;77;26255;-59
2022/06/01 04:15:23;;;;;;;0.80;0.80;;;;;;;;;;1835659;76;26339;-57
2022/06/01 04:17:51;;;;;;;0.80;0.80;;;;;;;;;;1833845;76;26273;-57
2022/06/01 04:20:18;;;;;;;0.80;0.80;;;;;;;;;;1832520;76;26272;-57
2022/06/01 04:22:46;;;;;;;0.93;0.93;;;;;;;;;;1831903;76;26800;-53
2022/06/01 04:25:15;;;;;;;1.42;0.80;;;;;;;;;;1837427;76;26313;-57
2022/06/01 04:27:42;;;;;;;0.80;0.80;;;;;;;;;;1852331;76;26342;-61
2022/06/01 04:30:11;;;;;;;2.50;0.80;;;;;;;;;;1857143;76;26322;-56
2022/06/01 04:32:38;;;;;;;0.80;0.80;;;;;;;;;;1850675;77;27450;-53
2022/06/01 04:35:07;;;;;;;1.42;1.00;;;;;;;;;;1844125;76;27201;-58
2022/06/01 04:37:34;;;;;;;1.00;0.90;;;;;;;;;;1856259;77;26339;-56
2022/06/01 04:40:02;;;;;;;0.80;0.80;;;;;;;;;;1858067;76;26338;-57
2022/06/01 04:42:29;;;;;;;0.80;0.80;;;;;;;;;;1851940;76;26316;-56
2022/06/01 04:44:57;;;;;;;0.70;0.70;;;;;;;;;;1856696;76;26657;-53
2022/06/01 04:47:24;;;;;;;0.90;0.90;;;;;;;;;;1845453;76;26331;-58
2022/06/01 04:49:51;;;;;;;0.80;0.80;;;;;;;;;;1854979;76;26254;-55
2022/06/01 04:52:18;;;;;;;0.90;0.90;;;;;;;;;;1852593;76;26344;-60
2022/06/01 04:54:46;;;;;;;0.90;0.90;;;;;;;;;;1855378;76;26342;-55
2022/06/01 04:57:13;;;;;;;0.80;0.80;;;;;;;;;;1855681;76;26709;-58
2022/06/01 04:59:40;;;;;;;0.80;0.80;;;;;;;;;;1855918;76;26965;-56
2022/06/01 05:02:08;;;;;;;0.80;0.80;;;;;;;;;;1855481;76;26291;-63
2022/06/01 05:04:35;;;;;;;0.85;0.85;;;;;;;;;;1852878;76;26198;-49
2022/06/01 05:07:02;;;;;;;1.45;0.80;;;;;;;;;;1855273;76;25696;-60
2022/06/01 05:09:30;;;;;;;0.90;0.90;;;;;;;;;;1853010;76;26347;-66
2022/06/01 05:11:57;;;;;;;0.80;0.80;;;;;;;;;;1857236;76;26304;-65
2022/06/01 05:14:24;;;;;;;0.80;0.80;;;;;;;;;;1855148;76;26245;-57
2022/06/01 05:16:52;;;;;;;0.80;0.80;;;;;;;;;;1855695;76;26264;-61
2022/06/01 05:19:19;;;;;;;0.85;0.80;;;;;;;;;;1855257;76;26760;-61
2022/06/01 05:21:46;;;;;;;1.65;0.90;;;;;;;;;;1853753;76;26782;-57
2022/06/01 05:24:14;;;;;;;3.30;1.07;;;;;;;;;;1852859;76;26842;-56
2022/06/01 05:26:41;;;;;;;0.95;0.80;;;;;;;;;;1854678;76;26305;-65
2022/06/01 05:29:08;;;;;;;0.75;0.75;;;;;;;;;;1853876;76;26325;-64
2022/06/01 05:31:36;;;;;;;1.00;0.80;;;;;;;;;;1853582;76;26265;-63
2022/06/01 05:34:03;;;;;;;0.80;0.80;;;;;;;;;;1853162;76;26330;-62
2022/06/01 05:36:31;;;;;;;0.95;0.90;;;;;;;;;;1854671;76;26383;-60
2022/06/01 05:38:58;;;;;;;0.80;0.80;;;;;;;;;;1855139;76;26363;-63
2022/06/01 05:41:26;;;;;;;0.80;0.80;;;;;;;;;;1845080;76;26342;-51
2022/06/01 05:43:54;;;;;;;0.75;0.75;;;;;;;;;;1853771;76;26860;-58
2022/06/01 05:46:26;;;;;;;2.72;0.88;;;;;;;;;;1854603;76;26268;-56
2022/06/01 05:48:53;;;;;;;4.87;1.25;;;;;;;;;;1851992;76;26273;-57
2022/06/01 05:51:21;;;;;;;1.32;1.20;;;;;;;;;;1852191;76;26312;-53
2022/06/01 05:53:48;;;;;;;1.25;1.15;;;;;;;;;;1853515;76;26269;-54
2022/06/01 05:56:16;;;;;;;2.22;1.02;;;;;;;;;;1852017;76;26301;-56
2022/06/01 05:58:43;;;;;;;3.65;1.20;;;;;;;;;;1851344;76;26333;-62
2022/06/01 06:01:10;;;;;;;1.30;1.10;;;;;;;;;;1854763;76;26343;-59
2022/06/01 06:03:38;;;;;;;1.02;1.02;;;;;;;;;;1853932;76;26351;-57
2022/06/01 06:06:17;;;;;;;3.25;1.30;;;;;;;;;;1851833;76;26296;-51
2022/06/01 06:08:46;;;;;;;1.72;1.10;;;;;;;;;;1852008;76;26335;-49
2022/06/01 06:11:15;;;;;;;1.55;1.10;;;;;;;;;;1853062;76;26382;-55
2022/06/01 06:13:43;;;;;;;2.77;1.22;;;;;;;;;;1851935;76;27498;-54
2022/06/01 06:16:10;;;;;;;1.20;1.20;;;;;;;;;;1853970;76;26261;-52
2022/06/01 06:18:38;;;;;;;1.20;1.20;;;;;;;;;;1854111;76;26738;-55
2022/06/01 06:21:06;;;;;;;1.00;1.00;;;;;;;;;;1854658;76;26343;-50
2022/06/01 06:23:34;;;;;;;3.35;1.27;;;;;;;;;;1850905;76;25856;-55
2022/06/01 06:26:02;;;;;;;3.27;1.30;;;;;;;;;;1852549;76;26305;-58
2022/06/01 06:28:29;;;;;;;1.00;1.00;;;;;;;;;;1852190;76;26277;-61
2022/06/01 06:30:56;;;;;;;1.10;1.10;;;;;;;;;;1847989;76;26272;-61
2022/06/01 06:33:24;;;;;;;1.47;1.10;;;;;;;;;;1851887;76;26296;-57
2022/06/01 06:35:58;;;;;;;1.50;1.10;;;;;;;;;;1853667;76;26568;-60
2022/06/01 06:38:27;;;;;;;1.10;1.10;;;;;;;;;;1846035;76;26335;-58
2022/06/01 06:40:55;;;;;;;1.20;1.20;;;;;;;;;;1854747;76;26958;-50
2022/06/01 06:43:23;;;;;;;2.58;1.30;;;;;;;;;;1853163;76;26382;-61
2022/06/01 06:45:58;;;;;;;1.30;1.20;;;;;;;;;;1849440;76;26257;-52
2022/06/01 06:48:25;;;;;;;1.80;1.15;;;;;;;;;;1855396;76;26260;-50
2022/06/01 06:50:53;;;;;;;1.17;1.12;;;;;;;;;;1851798;76;26712;-58
2022/06/01 06:53:20;;;;;;;3.85;1.50;;;;;;;;;;1855559;76;26273;-59
2022/06/01 06:55:48;;;;;;;1.62;1.10;;;;;;;;;;1848813;76;26733;-57
2022/06/01 06:58:16;;;;;;;1.07;1.07;;;;;;;;;;1855312;76;26237;-49
2022/06/01 07:00:44;;;;;;;1.10;1.10;;;;;;;;;;1854517;76;25784;-54
2022/06/01 07:03:11;;;;;;;1.05;1.05;;;;;;;;;;1845860;77;26249;-53
2022/06/01 07:08:25;;;;;;;1.30;1.20;;;;;;;;;;1853503;76;26403;-59
2022/06/01 07:10:52;;;;;;;1.27;1.17;;;;;;;;;;1842140;76;26327;-55
2022/06/01 07:13:19;;;;;;;1.10;1.10;;;;;;;;;;1849849;76;26292;-59
2022/06/01 07:15:47;;;;;;;1.10;1.10;;;;;;;;;;1852233;76;26758;-55
2022/06/01 07:18:14;;;;;;;1.25;1.10;;;;;;;;;;1841688;76;26918;-55
2022/06/01 07:20:42;;;;;;;1.07;1.07;;;;;;;;;;1854778;76;26353;-50
2022/06/01 07:23:09;;;;;;;2.35;1.10;;;;;;;;;;1841692;76;26298;-54
2022/06/01 07:25:36;;;;;;;1.02;1.00;;;;;;;;;;1855682;76;26201;-52
2022/06/01 07:28:04;;;;;;;1.30;1.10;;;;;;;;;;1848530;76;26286;-53
2022/06/01 07:30:31;;;;;;;4.70;1.50;;;;;;;;;;1846690;76;25359;-49
2022/06/01 07:32:58;;;;;;;6.08;1.60;;;;;;;;;;1856272;76;26246;-55
2022/06/01 07:35:26;;;;;;;9.13;1.92;;;;;;;;;;1843707;76;26364;-52
2022/06/01 07:43:24;;;;;;;2.33;1.70;;;;;;;;;;1855718;77;26600;-53
2022/06/01 07:45:51;;;;;;;6.53;1.50;;;;;;;;;;1854408;76;26260;-59
2022/06/01 07:48:19;;;;;;;16.25;1.85;;;;;;;;;;1853697;76;26322;-55
2022/06/01 07:50:48;;;;;;;5.20;1.75;;;;;;;;;;1854782;76;26296;-54
2022/06/01 07:53:16;;;;;;;3.37;1.47;;;;;;;;;;1850567;76;26277;-49
2022/06/01 07:55:43;;;;;;;1.50;1.40;;;;;;;;;;1850215;76;26268;-56
2022/06/01 07:58:11;;;;;;;2.87;1.47;;;;;;;;;;1853197;76;26292;-54
2022/06/01 08:00:38;;;;;;;10.38;1.57;;;;;;;;;;1850421;76;26833;-51
2022/06/01 08:03:07;;;;;;;1.62;1.52;;;;;;;;;;1841065;76;26288;-53
2022/06/01 08:05:35;;;;;;;12.33;1.50;;;;;;;;;;1851078;76;26275;-57
2022/06/01 08:08:02;;;;;;;4.00;1.62;;;;;;;;;;1845149;76;26358;-59
2022/06/01 08:10:30;;;;;;;2.75;1.25;;;;;;;;;;1855537;76;26287;-51
2022/06/01 08:13:09;;;;;;;4.30;1.45;;;;;;;;;;1847208;76;26314;-54
2022/06/01 08:15:38;;;;;;;2.17;1.30;;;;;;;;;;1843876;76;26330;-52
2022/06/01 08:18:05;;;;;;;3.15;1.30;;;;;;;;;;1851818;76;26206;-50
2022/06/01 08:20:33;;;;;;;3.45;1.30;;;;;;;;;;1856024;76;26320;-59
2022/06/01 08:23:01;;;;;;;11.88;1.65;;;;;;;;;;1851599;76;26245;-48
2022/06/01 08:25:29;;;;;;;3.72;1.45;;;;;;;;;;1852331;76;26764;-53
2022/06/01 08:27:56;;;;;;;3.00;1.20;;;;;;;;;;1845729;76;26308;-50
2022/06/01 08:30:25;;;;;;;4.45;1.30;;;;;;;;;;1847493;76;26261;-57
2022/06/01 08:32:54;;;;;;;1.47;1.10;;;;;;;;;;1832507;76;26441;-61
2022/06/01 08:35:23;;;;;;;3.60;1.30;;;;;;;;;;1847894;76;26680;-52
2022/06/01 08:37:50;;;;;;;5.08;1.30;;;;;;;;;;1853575;76;26629;-56
2022/06/01 08:40:20;;;;;;;2.65;1.10;;;;;;;;;;1854793;76;26290;-60
2022/06/01 08:42:51;;;;;;;2.60;1.45;;;;;;;;;;1828684;77;38493;-53
2022/06/01 08:45:22;;;;;;;3.30;1.30;;;;;;;;;;1846676;77;26265;-51
2022/06/01 08:47:49;;;;;;;1.37;1.30;;;;;;;;;;1843059;76;26276;-53
2022/06/01 08:50:18;;;;;;;5.78;1.32;;;;;;;;;;1848130;76;26269;-50
2022/06/01 08:52:45;;;;;;;1.22;1.17;;;;;;;;;;1842464;76;26359;-54
2022/06/01 08:55:13;;;;;;;1.07;1.05;;;;;;;;;;1843748;76;26324;-60
2022/06/01 08:57:45;;;;;;;2.52;1.10;;;;;;;;;;1844811;76;27302;-52
2022/06/01 09:00:18;;;;;;;2.50;1.20;;;;;;;;;;1843372;76;26267;-58
2022/06/01 09:03:05;;;;;;;1.10;1.10;;;;;;;;;;1842316;76;26354;-58
2022/06/01 09:05:40;;;;;;;2.60;1.35;;;;;;;;;;1845173;76;26309;-56
2022/06/01 09:08:12;;;;;;;1.77;1.27;;;;;;;;;;1842050;76;26258;-59
2022/06/01 09:10:41;;;;;;;2.37;1.15;;;;;;;;;;1848179;76;26316;-56
2022/06/01 09:13:09;;;;;;;3.17;1.17;;;;;;;;;;1847460;76;26283;-54
2022/06/01 09:15:55;;;;;;;3.98;1.40;;;;;;;;;;1845405;76;27574;-59
2022/06/01 09:18:24;;;;;;;1.45;1.35;;;;;;;;;;1844107;76;26292;-55
2022/06/01 09:23:37;;;;;;;2.83;1.80;;;;;;;;;;1842631;76;26332;-59
2022/06/01 09:26:05;;;;;;;3.73;1.80;;;;;;;;;;1836102;76;28256;-60
2022/06/01 09:28:34;;;;;;;1.90;1.70;;;;;;;;;;1816035;77;28229;-50
2022/06/01 09:31:03;;;;;;;2.10;1.70;;;;;;;;;;1831617;76;26312;-52
2022/06/01 09:33:34;;;;;;;2.10;1.72;;;;;;;;;;1832002;77;26258;-53
2022/06/01 09:36:03;;;;;;;3.70;1.70;;;;;;;;;;1832952;77;26238;-50
2022/06/01 09:38:38;;;;;;;6.95;1.95;;;;;;;;;;1837494;78;26314;-59
2022/06/01 09:41:07;;;;;;;4.25;1.80;;;;;;;;;;1832930;77;26718;-52
2022/06/01 09:43:34;;;;;;;3.58;1.90;;;;;;;;;;1836036;77;26288;-59
2022/06/01 09:46:01;;;;;;;4.30;1.80;;;;;;;;;;1830004;76;26864;-54
2022/06/01 09:48:30;;;;;;;4.55;1.65;;;;;;;;;;1831073;77;26687;-54
2022/06/01 09:50:59;;;;;;;2.65;1.77;;;;;;;;;;1832463;77;26319;-58
2022/06/01 09:53:28;;;;;;;2.12;2.00;;;;;;;;;;1824719;77;26290;-61
2022/06/01 09:55:58;;;;;;;3.67;2.20;;;;;;;;;;1810277;77;28700;-53
2022/06/01 10:06:55;;;;;;;2.77;1.70;;;;;;;;;;1829892;77;26341;-53
2022/06/01 10:09:25;;;;;;;3.02;1.60;;;;;;;;;;1834777;77;26319;-61
2022/06/01 10:14:41;;;;;;;2.75;1.90;;;;;;;;;;1824064;76;26371;-56
2022/06/01 10:17:28;;;;;;;3.60;2.00;;;;;;;;;;1794022;78;26228;-56
2022/06/01 10:20:09;;;;;;;2.65;1.60;;;;;;;;;;1792619;78;26366;-58
2022/06/01 10:22:47;;;;;;;2.15;1.90;;;;;;;;;;1803140;78;26295;-57
2022/06/01 10:25:19;;;;;;;1.77;1.52;;;;;;;;;;1817311;78;26677;-56
2022/06/01 10:27:48;;;;;;;1.82;1.67;;;;;;;;;;1801485;78;26288;-59
2022/06/01 10:30:17;;;;;;;1.70;1.60;;;;;;;;;;1813454;78;26786;-56
2022/06/01 10:32:52;;;;;;;2.65;1.60;;;;;;;;;;1794537;78;26291;-52
2022/06/01 10:35:38;;;;;;;2.50;1.70;;;;;;;;;;1790712;78;26650;-58
2022/06/01 10:38:12;;;;;;;1.67;1.57;;;;;;;;;;1788773;78;26390;-53
2022/06/01 10:40:58;;;;;;;3.80;1.40;;;;;;;;;;1793886;78;26744;-50
2022/06/01 10:43:39;;;;;;;1.35;1.35;;;;;;;;;;1803114;78;26362;-60
2022/06/01 10:46:07;;;;;;;1.20;1.20;;;;;;;;;;1787406;78;26732;-52
2022/06/01 10:48:37;;;;;;;1.42;1.42;;;;;;;;;;1804160;78;26798;-49
2022/06/01 10:51:22;;;;;;;1.50;1.40;;;;;;;;;;1788757;78;26407;-52
2022/06/01 10:53:53;;;;;;;1.35;1.30;;;;;;;;;;1815282;78;26366;-49
2022/06/01 10:56:22;;;;;;;1.40;1.40;;;;;;;;;;1794943;78;26280;-48
2022/06/01 10:58:50;;;;;;;1.85;1.30;;;;;;;;;;1825663;78;26315;-48
2022/06/01 11:01:35;;;;;;;1.32;1.32;;;;;;;;;;1790068;78;26318;-50
2022/06/01 11:04:10;;;;;;;2.45;1.70;;;;;;;;;;1795783;78;26285;-53
2022/06/01 11:06:51;;;;;;;1.30;1.20;;;;;;;;;;1802913;78;26268;-55
2022/06/01 11:09:22;;;;;;;1.30;1.30;;;;;;;;;;1749928;78;26440;-57
2022/06/01 11:11:56;;;;;;;1.45;1.35;;;;;;;;;;1808577;78;26236;-54
2022/06/01 11:14:28;;;;;;;2.08;1.10;;;;;;;;;;1799585;78;26864;-57
2022/06/01 11:16:57;;;;;;;1.12;1.12;;;;;;;;;;1796948;78;26370;-53
2022/06/01 11:19:38;;;;;;;1.32;1.20;;;;;;;;;;1766143;79;26938;-59
2022/06/01 11:22:07;;;;;;;1.72;1.12;;;;;;;;;;1777642;79;26369;-51
2022/06/01 11:24:45;;;;;;;1.10;1.10;;;;;;;;;;1766562;79;26381;-52
2022/06/01 11:27:23;;;;;;;2.10;1.27;;;;;;;;;;1771481;79;26314;-55
2022/06/01 11:29:56;;;;;;;1.27;1.17;;;;;;;;;;1743823;81;26331;-57
2022/06/01 11:32:24;;;;;;;1.40;1.30;;;;;;;;;;1806324;78;26824;-54
2022/06/01 11:35:02;;;;;;;3.33;1.25;;;;;;;;;;1803798;78;26767;-57
2022/06/01 11:37:31;;;;;;;1.27;1.17;;;;;;;;;;1797898;78;26273;-51
2022/06/01 11:39:59;;;;;;;1.55;1.20;;;;;;;;;;1780286;78;26296;-55
2022/06/01 11:42:44;;;;;;;2.55;1.10;;;;;;;;;;1823089;78;26343;-54
2022/06/01 11:45:19;;;;;;;1.30;1.20;;;;;;;;;;1810454;78;26736;-54
2022/06/01 11:47:48;;;;;;;6.03;1.30;;;;;;;;;;1767284;79;26393;-53
2022/06/01 11:50:19;;;;;;;1.25;1.25;;;;;;;;;;1767795;80;26727;-56
2022/06/01 11:53:00;;;;;;;1.10;1.10;;;;;;;;;;1762147;79;26776;-49
2022/06/01 11:55:31;;;;;;;1.20;1.10;;;;;;;;;;1776567;79;27619;-50
2022/06/01 11:58:17;;;;;;;1.00;1.00;;;;;;;;;;1754909;80;26369;-53
2022/06/01 12:00:51;;;;;;;1.95;1.10;;;;;;;;;;1759216;80;26356;-50
2022/06/01 12:03:19;;;;;;;2.55;1.30;;;;;;;;;;1752766;80;26372;-53
2022/06/01 12:06:00;;;;;;;1.02;1.00;;;;;;;;;;1777663;79;26295;-48
2022/06/01 12:08:30;;;;;;;1.45;1.05;;;;;;;;;;1765977;79;26395;-49
2022/06/01 12:10:59;;;;;;;1.25;1.15;;;;;;;;;;1766370;80;26421;-56
2022/06/01 12:13:28;;;;;;;1.10;1.10;;;;;;;;;;1763326;79;27483;-58
2022/06/01 12:16:05;;;;;;;1.17;1.05;;;;;;;;;;1761771;79;26745;-57
2022/06/01 12:18:33;;;;;;;1.20;1.10;;;;;;;;;;1765514;79;26323;-56
2022/06/01 12:21:14;;;;;;;0.90;0.90;;;;;;;;;;1743142;81;26322;-50
2022/06/01 12:29:14;;;;;;;1.12;0.90;;;;;;;;;;1748592;79;26316;-50
2022/06/01 12:31:43;;;;;;;1.02;1.02;;;;;;;;;;1779616;79;26311;-59
2022/06/01 12:34:17;;;;;;;2.17;1.00;;;;;;;;;;1798441;78;26269;-50
2022/06/01 12:36:46;;;;;;;0.90;0.90;;;;;;;;;;1791554;78;26743;-55
2022/06/01 12:39:24;;;;;;;1.27;1.00;;;;;;;;;;1809992;78;26722;-61
2022/06/01 12:41:53;;;;;;;1.05;1.05;;;;;;;;;;1811923;78;26326;-54
2022/06/01 12:44:21;;;;;;;1.02;1.02;;;;;;;;;;1813109;78;26288;-56
2022/06/01 12:46:51;;;;;;;2.47;1.00;;;;;;;;;;1802419;78;26271;-56
2022/06/01 12:49:33;;;;;;;1.10;1.00;;;;;;;;;;1794341;78;26348;-57
2022/06/01 12:52:11;;;;;;;4.17;1.10;;;;;;;;;;1810553;78;26311;-53
2022/06/01 12:54:43;;;;;;;1.30;1.20;;;;;;;;;;1833815;78;26248;-53
2022/06/01 12:57:12;;;;;;;1.07;1.07;;;;;;;;;;1777211;79;26752;-47
2022/06/01 12:59:40;;;;;;;1.25;1.00;;;;;;;;;;1766773;79;26279;-48
2022/06/01 13:02:12;;;;;;;0.80;0.80;;;;;;;;;;1760389;79;26299;-53
2022/06/01 13:04:41;;;;;;;1.07;1.07;;;;;;;;;;1778082;79;26239;-57
2022/06/01 13:07:10;;;;;;;1.82;1.00;;;;;;;;;;1788603;79;26294;-52
2022/06/01 13:09:37;;;;;;;0.90;0.90;;;;;;;;;;1781265;79;26502;-52
2022/06/01 13:12:07;;;;;;;1.52;1.10;;;;;;;;;;1774071;79;26302;-50
2022/06/01 13:14:35;;;;;;;1.65;1.10;;;;;;;;;;1783283;79;26745;-56
2022/06/01 13:17:04;;;;;;;1.10;1.10;;;;;;;;;;1755340;79;28359;-52
2022/06/01 13:19:31;;;;;;;1.10;1.10;;;;;;;;;;1763309;80;26393;-54
2022/06/01 13:22:00;;;;;;;1.67;1.00;;;;;;;;;;1766329;80;26381;-58
2022/06/01 13:27:17;;;;;;;0.98;0.88;;;;;;;;;;1780437;79;26339;-52
2022/06/01 13:29:48;;;;;;;0.80;0.80;;;;;;;;;;1741102;81;26327;-55
2022/06/01 13:32:16;;;;;;;1.00;1.00;;;;;;;;;;1731624;81;26794;-58
2022/06/01 13:34:48;;;;;;;1.15;1.10;;;;;;;;;;1733871;81;26763;-55
2022/06/01 13:37:17;;;;;;;0.80;0.80;;;;;;;;;;1766595;79;26338;-57
2022/06/01 13:39:46;;;;;;;0.82;0.82;;;;;;;;;;1739992;80;26347;-54
2022/06/01 13:42:14;;;;;;;0.88;0.88;;;;;;;;;;1739447;81;26407;-53
2022/06/01 13:44:49;;;;;;;0.90;0.90;;;;;;;;;;1752625;81;26303;-50
2022/06/01 13:47:18;;;;;;;1.65;1.00;;;;;;;;;;1740142;81;26313;-47
2022/06/01 13:49:48;;;;;;;0.90;0.90;;;;;;;;;;1740408;81;26306;-52
2022/06/01 13:52:15;;;;;;;0.90;0.90;;;;;;;;;;1735702;81;26646;-51
2022/06/01 13:54:44;;;;;;;0.85;0.85;;;;;;;;;;1738587;81;26316;-57
2022/06/01 13:57:16;;;;;;;0.90;0.90;;;;;;;;;;1739766;81;26356;-49
2022/06/01 13:59:57;;;;;;;1.10;1.00;;;;;;;;;;1737975;80;26312;-51
2022/06/01 14:02:27;;;;;;;0.90;0.90;;;;;;;;;;1738670;81;26395;-54
2022/06/01 14:05:01;;;;;;;0.90;0.90;;;;;;;;;;1728129;81;26870;-54
2022/06/01 14:07:30;;;;;;;0.90;0.90;;;;;;;;;;1740709;80;26406;-47
2022/06/01 14:10:03;;;;;;;0.93;0.93;;;;;;;;;;1738565;81;26333;-54
2022/06/01 14:12:30;;;;;;;0.95;0.95;;;;;;;;;;1767950;80;26380;-52
2022/06/01 14:14:58;;;;;;;0.80;0.80;;;;;;;;;;1727359;81;26474;-54
2022/06/01 14:17:26;;;;;;;1.02;1.02;;;;;;;;;;1725677;81;26316;-48
2022/06/01 14:19:53;;;;;;;0.90;0.90;;;;;;;;;;1729999;81;26282;-47
2022/06/01 14:22:20;;;;;;;0.90;0.90;;;;;;;;;;1741819;80;26383;-46
2022/06/01 14:30:18;;;;;;;1.00;1.00;;;;;;;;;;1709579;82;26388;-55
2022/06/01 14:32:46;;;;;;;0.90;0.90;;;;;;;;;;1764211;80;26297;-54
2022/06/01 14:35:15;;;;;;;0.93;0.93;;;;;;;;;;1760657;80;26291;-49
2022/06/01 14:37:43;;;;;;;0.80;0.80;;;;;;;;;;1761043;79;25853;-52
2022/06/01 14:40:12;;;;;;;0.90;0.90;;;;;;;;;;1765056;80;26452;-51
2022/06/01 14:42:39;;;;;;;0.90;0.90;;;;;;;;;;1765345;80;26310;-53
2022/06/01 14:45:07;;;;;;;0.82;0.82;;;;;;;;;;1763954;80;26372;-55
2022/06/01 14:47:35;;;;;;;0.90;0.90;;;;;;;;;;1755665;80;26438;-56
2022/06/01 14:50:02;;;;;;;0.95;0.95;;;;;;;;;;1763741;80;26293;-52
2022/06/01 14:52:29;;;;;;;2.65;1.00;;;;;;;;;;1764616;80;26654;-53
2022/06/01 14:54:58;;;;;;;3.37;0.80;;;;;;;;;;1764040;79;26678;-52
2022/06/01 14:57:26;;;;;;;3.77;0.90;;;;;;;;;;1765456;79;26344;-56
2022/06/01 14:59:53;;;;;;;4.72;1.20;;;;;;;;;;1760541;80;26352;-63
2022/06/01 15:02:21;;;;;;;6.25;1.10;;;;;;;;;;1754920;80;26319;-55
2022/06/01 15:04:50;;;;;;;5.37;1.00;;;;;;;;;;1764248;79;26349;-50
2022/06/01 15:07:18;;;;;;;2.17;1.10;;;;;;;;;;1765105;80;26308;-54
2022/06/01 15:09:45;;;;;;;4.25;1.10;;;;;;;;;;1763215;79;26349;-57
2022/06/01 15:12:12;;;;;;;6.60;1.30;;;;;;;;;;1759573;80;26284;-51
2022/06/01 15:14:40;;;;;;;2.65;1.00;;;;;;;;;;1761145;79;26312;-49
2022/06/01 15:17:08;;;;;;;1.95;0.98;;;;;;;;;;1763433;80;26294;-46
2022/06/01 15:19:37;;;;;;;6.05;1.20;;;;;;;;;;1762974;79;26293;-47
2022/06/01 15:22:05;;;;;;;3.50;0.90;;;;;;;;;;1755430;79;26669;-48
2022/06/01 15:24:32;;;;;;;1.02;1.00;;;;;;;;;;1762910;80;26346;-52
2022/06/01 15:26:59;;;;;;;2.37;1.15;;;;;;;;;;1763015;79;26299;-54
2022/06/01 15:40:32;;;;;;;1.20;1.10;;;;;;;;;;1799792;78;26373;-52
2022/06/01 15:43:00;;;;;;;2.02;1.00;;;;;;;;;;1797441;78;26268;-48
2022/06/01 15:45:31;;;;;;;1.15;1.00;;;;;;;;;;1796015;78;26308;-53
2022/06/01 15:47:59;;;;;;;0.90;0.90;;;;;;;;;;1796771;78;26290;-47
2022/06/01 15:50:27;;;;;;;1.15;1.00;;;;;;;;;;1797528;78;26659;-51
2022/06/01 15:52:54;;;;;;;2.77;1.00;;;;;;;;;;1797231;78;26266;-52